createdAt,value
2023-03-02T00:01:03.687Z,97210.09
2023-03-02T00:03:07.405Z,97205.81
2023-03-02T00:05:14.833Z,97208.44
2023-03-02T00:07:22.262Z,97207.63
2023-03-02T00:09:25.248Z,97205.06
2023-03-02T00:11:28.161Z,97205.06
2023-03-02T00:13:31.844Z,97204.22
2023-03-02T00:15:34.448Z,97205.94
2023-03-02T00:17:37.243Z,97206.81
2023-03-02T00:19:39.985Z,97203.38
2023-03-02T00:21:42.666Z,97205.09
2023-03-02T00:23:46.942Z,97203.44
2023-03-02T00:25:49.518Z,97209.47
2023-03-02T00:27:52.130Z,97204.31
2023-03-02T00:29:54.718Z,97199.16
2023-03-02T00:31:57.314Z,97203.47
2023-03-02T00:34:00.020Z,97201.78
2023-03-02T00:36:02.906Z,97211.19
2023-03-02T00:38:05.600Z,97204.38
2023-03-02T00:40:11.025Z,97208.69
2023-03-02T00:42:13.639Z,97208.72
2023-03-02T00:44:17.621Z,97202.69
2023-03-02T00:46:23.204Z,97206.97
2023-03-02T00:48:25.783Z,97209.56
2023-03-02T00:50:28.413Z,97202.72
2023-03-02T00:52:31.308Z,97201.84
2023-03-02T00:54:33.877Z,97195.84
2023-03-02T00:56:37.814Z,97201.00
2023-03-02T00:58:40.471Z,97201.03
2023-03-02T01:00:43.553Z,97201.03
2023-03-02T01:02:46.238Z,97191.59
2023-03-02T01:04:49.145Z,97191.63
2023-03-02T01:06:51.745Z,97183.88
2023-03-02T01:08:54.292Z,97177.88
2023-03-02T01:10:56.926Z,97176.16
2023-03-02T01:13:01.001Z,97175.31
2023-03-02T01:15:04.855Z,97178.72
2023-03-02T01:17:08.752Z,97173.59
2023-03-02T01:19:11.904Z,97170.19
2023-03-02T01:21:16.771Z,97165.03
2023-03-02T01:23:19.329Z,97175.34
2023-03-02T01:25:21.944Z,97178.84
2023-03-02T01:27:24.524Z,97172.84
2023-03-02T01:29:28.729Z,97171.09
2023-03-02T01:31:32.208Z,97166.81
2023-03-02T01:33:34.969Z,97160.84
2023-03-02T01:35:37.560Z,97156.53
2023-03-02T01:37:40.215Z,97153.94
2023-03-02T01:39:42.788Z,97150.50
2023-03-02T01:41:46.227Z,97146.19
2023-03-02T01:43:48.872Z,97141.94
2023-03-02T01:45:55.224Z,97144.53
2023-03-02T01:47:57.900Z,97141.94
2023-03-02T01:50:04.885Z,97144.53
2023-03-02T01:52:12.174Z,97143.69
2023-03-02T01:54:23.207Z,97138.53
2023-03-02T01:56:30.538Z,97133.38
2023-03-02T01:58:36.950Z,97135.09
2023-03-02T02:00:41.080Z,97131.66
2023-03-02T02:02:45.206Z,97130.78
2023-03-02T02:04:49.670Z,97139.38
2023-03-02T02:06:56.459Z,97139.38
2023-03-02T02:08:59.632Z,97135.94
2023-03-02T02:11:02.315Z,97135.09
2023-03-02T02:13:04.939Z,97140.22
2023-03-02T02:15:10.153Z,97144.53
2023-03-02T02:17:13.861Z,97140.25
2023-03-02T02:19:35.251Z,97133.38
2023-03-02T02:21:37.829Z,97135.09
2023-03-02T02:23:46.318Z,97125.69
2023-03-02T02:26:03.677Z,97130.84
2023-03-02T02:28:14.204Z,97123.94
2023-03-02T02:30:17.862Z,97123.94
2023-03-02T02:32:26.401Z,97129.97
2023-03-02T02:34:33.226Z,97121.34
2023-03-02T02:36:41.006Z,97118.78
2023-03-02T02:38:47.905Z,97115.38
2023-03-02T02:40:54.574Z,97112.78
2023-03-02T02:42:58.533Z,97120.53
2023-03-02T02:45:05.120Z,97122.22
2023-03-02T02:47:18.197Z,97120.50
2023-03-02T02:49:33.336Z,97117.09
2023-03-02T02:51:36.219Z,97108.50
2023-03-02T02:53:44.142Z,97107.63
2023-03-02T02:55:48.298Z,97111.94
2023-03-02T02:57:52.698Z,97110.22
2023-03-02T02:59:59.768Z,97109.34
2023-03-02T03:02:02.505Z,97104.19
2023-03-02T03:04:07.190Z,97101.69
2023-03-02T03:06:17.613Z,97099.91
2023-03-02T03:08:55.849Z,97095.59
2023-03-02T03:10:59.706Z,97098.16
2023-03-02T03:13:03.070Z,97094.72
2023-03-02T03:15:08.792Z,97093.84
2023-03-02T03:17:13.762Z,97092.19
2023-03-02T03:19:20.812Z,97093.03
2023-03-02T03:21:23.403Z,97091.31
2023-03-02T03:23:26.020Z,97099.88
2023-03-02T03:25:28.647Z,97100.75
2023-03-02T03:27:31.282Z,97100.81
2023-03-02T03:29:35.159Z,97099.06
2023-03-02T03:31:39.335Z,97093.06
2023-03-02T03:33:41.903Z,97094.75
2023-03-02T03:35:44.529Z,97090.44
2023-03-02T03:37:48.467Z,97098.19
2023-03-02T03:39:51.274Z,97092.19
2023-03-02T03:41:53.809Z,97102.50
2023-03-02T03:43:56.673Z,97094.78
2023-03-02T03:45:59.323Z,97088.81
2023-03-02T03:48:03.282Z,97090.53
2023-03-02T03:50:09.410Z,97091.38
2023-03-02T03:52:13.841Z,97097.44
2023-03-02T03:54:16.463Z,97097.44
2023-03-02T03:56:19.050Z,97099.22
2023-03-02T03:58:21.742Z,97096.63
2023-03-02T04:00:24.881Z,97102.63
2023-03-02T04:02:27.603Z,97101.78
2023-03-02T04:04:35.705Z,97106.94
2023-03-02T04:06:38.305Z,97106.09
2023-03-02T04:08:40.892Z,97100.06
2023-03-02T04:10:43.482Z,97106.09
2023-03-02T04:12:46.276Z,97106.09
2023-03-02T04:14:48.913Z,97106.09
2023-03-02T04:16:52.196Z,97100.94
2023-03-02T04:18:55.202Z,97106.09
2023-03-02T04:20:59.146Z,97108.69
2023-03-02T04:23:01.729Z,97107.00
2023-03-02T04:25:05.108Z,97107.91
2023-03-02T04:27:07.680Z,97108.72
2023-03-02T04:29:10.721Z,97109.59
2023-03-02T04:31:13.328Z,97115.63
2023-03-02T04:33:15.923Z,97118.19
2023-03-02T04:35:19.033Z,97124.22
2023-03-02T04:37:22.944Z,97117.34
2023-03-02T04:39:25.784Z,97119.94
2023-03-02T04:41:28.432Z,97120.78
2023-03-02T04:43:32.193Z,97124.19
2023-03-02T04:45:35.161Z,97121.59
2023-03-02T04:47:37.701Z,97126.75
2023-03-02T04:49:40.376Z,97134.47
2023-03-02T04:51:45.719Z,97127.59
2023-03-02T04:53:49.617Z,97131.03
2023-03-02T04:55:52.170Z,97121.59
2023-03-02T04:57:54.781Z,97126.78
2023-03-02T04:59:57.371Z,97125.91
2023-03-02T05:02:01.537Z,97119.91
2023-03-02T05:04:04.552Z,97119.06
2023-03-02T05:06:07.996Z,97118.19
2023-03-02T05:08:10.540Z,97119.06
2023-03-02T05:10:15.917Z,97119.94
2023-03-02T05:12:19.199Z,97110.47
2023-03-02T05:14:22.561Z,97117.34
2023-03-02T05:16:26.347Z,97115.63
2023-03-02T05:18:29.094Z,97115.63
2023-03-02T05:20:31.873Z,97118.19
2023-03-02T05:22:34.455Z,97115.63
2023-03-02T05:24:37.383Z,97120.75
2023-03-02T05:26:41.702Z,97117.31
2023-03-02T05:28:44.962Z,97123.34
2023-03-02T05:30:48.269Z,97116.47
2023-03-02T05:32:51.367Z,97113.03
2023-03-02T05:34:53.949Z,97107.09
2023-03-02T05:36:58.131Z,97113.91
2023-03-02T05:39:00.802Z,97113.91
2023-03-02T05:41:03.517Z,97112.19
2023-03-02T05:43:07.931Z,97113.91
2023-03-02T05:45:18.010Z,97114.78
2023-03-02T05:47:20.581Z,97117.38
2023-03-02T05:49:23.127Z,97114.81
2023-03-02T05:51:25.722Z,97116.50
2023-03-02T05:53:28.441Z,97120.78
2023-03-02T05:55:31.584Z,97123.34
2023-03-02T05:57:34.574Z,97122.50
2023-03-02T05:59:38.530Z,97120.78
2023-03-02T06:01:41.263Z,97121.63
2023-03-02T06:03:44.208Z,97122.50
2023-03-02T06:05:52.351Z,97116.47
2023-03-02T06:07:57.196Z,97118.19
2023-03-02T06:09:59.812Z,97122.53
2023-03-02T06:12:02.376Z,97127.66
2023-03-02T06:14:04.967Z,97125.09
2023-03-02T06:16:09.709Z,97120.78
2023-03-02T06:18:12.676Z,97124.25
2023-03-02T06:20:18.542Z,97124.22
2023-03-02T06:22:21.154Z,97127.69
2023-03-02T06:24:23.786Z,97130.22
2023-03-02T06:26:26.348Z,97124.19
2023-03-02T06:28:28.914Z,97124.19
2023-03-02T06:30:31.471Z,97131.06
2023-03-02T06:32:35.603Z,97128.50
2023-03-02T06:34:38.185Z,97133.69
2023-03-02T06:36:40.888Z,97136.28
2023-03-02T06:38:43.513Z,97140.59
2023-03-02T06:40:46.151Z,97144.03
2023-03-02T06:42:48.737Z,97144.06
2023-03-02T06:44:51.718Z,97148.34
2023-03-02T06:46:54.258Z,97155.22
2023-03-02T06:48:58.178Z,97159.53
2023-03-02T06:51:00.869Z,97170.75
2023-03-02T06:53:03.699Z,97155.25
2023-03-02T06:55:07.442Z,97158.69
2023-03-02T06:57:10.002Z,97158.66
2023-03-02T06:59:15.143Z,97159.53
2023-03-02T07:01:17.889Z,97163.78
2023-03-02T07:03:20.557Z,97165.50
2023-03-02T07:05:24.978Z,97168.06
2023-03-02T07:07:27.634Z,97163.75
2023-03-02T07:09:33.709Z,97165.47
2023-03-02T07:11:36.253Z,97166.31
2023-03-02T07:13:39.419Z,97167.97
2023-03-02T07:15:42.012Z,97172.25
2023-03-02T07:17:46.019Z,97167.97
2023-03-02T07:19:48.589Z,97173.13
2023-03-02T07:21:52.456Z,97167.97
2023-03-02T07:23:55.066Z,97173.09
2023-03-02T07:25:57.878Z,97174.81
2023-03-02T07:28:00.469Z,97177.34
2023-03-02T07:30:03.196Z,97174.81
2023-03-02T07:32:06.916Z,97175.69
2023-03-02T07:34:09.537Z,97171.38
2023-03-02T07:36:12.141Z,97167.94
2023-03-02T07:38:16.139Z,97170.47
2023-03-02T07:40:19.076Z,97175.59
2023-03-02T07:42:21.610Z,97179.03
2023-03-02T07:44:24.218Z,97181.56
2023-03-02T07:46:26.836Z,97176.41
2023-03-02T07:48:29.522Z,97180.66
2023-03-02T07:50:32.665Z,97188.41
2023-03-02T07:52:35.475Z,97184.06
2023-03-02T07:54:39.430Z,97187.53
2023-03-02T07:56:42.346Z,97189.22
2023-03-02T07:58:45.400Z,97184.91
2023-03-02T08:00:48.233Z,97190.06
2023-03-02T08:02:50.947Z,97194.34
2023-03-02T08:04:53.645Z,97194.41
2023-03-02T08:06:56.248Z,97196.06
2023-03-02T08:09:00.888Z,97196.06
2023-03-02T08:11:09.712Z,97197.72
2023-03-02T08:13:12.271Z,97195.97
2023-03-02T08:15:15.510Z,97209.69
2023-03-02T08:17:18.074Z,97200.19
2023-03-02T08:19:21.086Z,97202.72
2023-03-02T08:21:26.289Z,97205.22
2023-03-02T08:23:29.088Z,97201.75
2023-03-02T08:25:31.668Z,97204.38
2023-03-02T08:27:35.556Z,97205.28
2023-03-02T08:29:38.170Z,97208.63
2023-03-02T08:31:40.847Z,97209.53
2023-03-02T08:33:43.571Z,97213.78
2023-03-02T08:35:46.179Z,97209.47
2023-03-02T08:37:48.836Z,97211.22
2023-03-02T08:39:51.775Z,97207.78
2023-03-02T08:41:55.060Z,97210.38
2023-03-02T08:43:58.989Z,97205.13
2023-03-02T08:46:02.004Z,97213.63
2023-03-02T08:48:04.953Z,97213.63
2023-03-02T08:50:08.434Z,97216.22
2023-03-02T08:52:11.016Z,97206.69
2023-03-02T08:54:14.184Z,97205.81
2023-03-02T08:56:18.756Z,97212.69
2023-03-02T08:58:21.531Z,97202.38
2023-03-02T09:00:25.681Z,97194.56
2023-03-02T09:02:28.234Z,97197.13
2023-03-02T09:04:30.876Z,97200.53
2023-03-02T09:06:35.812Z,97203.09
2023-03-02T09:08:38.486Z,97194.28
2023-03-02T09:10:41.113Z,97198.66
2023-03-02T09:12:43.673Z,97197.81
2023-03-02T09:14:46.231Z,97201.28
2023-03-02T09:16:50.222Z,97200.41
2023-03-02T09:18:53.264Z,97197.00
2023-03-02T09:20:56.882Z,97197.84
2023-03-02T09:22:59.490Z,97196.09
2023-03-02T09:25:02.124Z,97208.09
2023-03-02T09:27:04.863Z,97206.38
2023-03-02T09:29:08.137Z,97210.63
2023-03-02T09:31:10.938Z,97206.31
2023-03-02T09:33:14.837Z,97205.44
2023-03-02T09:35:17.449Z,97211.44
2023-03-02T09:37:19.989Z,97205.41
2023-03-02T09:39:22.529Z,97200.22
2023-03-02T09:42:11.299Z,97207.09
2023-03-02T09:44:38.613Z,97202.66
2023-03-02T09:46:47.689Z,97210.41
2023-03-02T09:49:05.961Z,97208.69
2023-03-02T09:51:32.351Z,97215.56
2023-03-02T09:53:45.156Z,97208.66
2023-03-02T09:55:53.484Z,97207.75
2023-03-02T09:57:56.774Z,97207.63
2023-03-02T10:00:12.925Z,97209.38
2023-03-02T10:02:26.625Z,97216.38
2023-03-02T10:04:34.462Z,97205.94
2023-03-02T10:06:37.064Z,97201.69
2023-03-02T10:08:42.814Z,97204.06
2023-03-02T10:10:47.457Z,97209.31
2023-03-02T10:13:01.095Z,97210.19
2023-03-02T10:15:09.495Z,97205.88
2023-03-02T10:17:29.550Z,97212.69
2023-03-02T10:19:42.522Z,97205.72
2023-03-02T10:21:48.295Z,97215.09
2023-03-02T10:23:57.616Z,97215.91
2023-03-02T10:26:07.878Z,97219.31
2023-03-02T10:28:18.258Z,97216.66
2023-03-02T10:30:27.798Z,97216.63
2023-03-02T10:32:33.797Z,97224.25
2023-03-02T10:34:39.623Z,97220.81
2023-03-02T10:36:44.878Z,97226.78
2023-03-02T10:38:48.105Z,97222.09
2023-03-02T10:40:53.222Z,97230.00
2023-03-02T10:42:57.496Z,97235.31
2023-03-02T10:45:08.630Z,97230.88
2023-03-02T10:47:21.030Z,97235.22
2023-03-02T10:49:31.918Z,97237.06
2023-03-02T10:51:36.272Z,97232.78
2023-03-02T10:53:38.830Z,97231.00
2023-03-02T10:55:46.362Z,97226.53
2023-03-02T10:58:03.472Z,97234.34
2023-03-02T11:00:16.277Z,97232.66
2023-03-02T11:02:23.441Z,97234.28
2023-03-02T11:04:27.256Z,97230.84
2023-03-02T11:06:31.384Z,97232.47
2023-03-02T11:08:35.559Z,97229.91
2023-03-02T11:10:40.106Z,97225.47
2023-03-02T11:12:47.554Z,97221.88
2023-03-02T11:14:50.115Z,97222.94
2023-03-02T11:16:53.688Z,97224.25
2023-03-02T11:18:59.815Z,97221.66
2023-03-02T11:21:05.610Z,97225.34
2023-03-02T11:23:23.451Z,97226.25
2023-03-02T11:25:32.863Z,97219.41
2023-03-02T11:27:40.146Z,97216.88
2023-03-02T11:29:46.555Z,97224.41
2023-03-02T11:31:52.028Z,97215.09
2023-03-02T11:34:36.344Z,97209.00
2023-03-02T11:36:46.366Z,97212.00
2023-03-02T11:38:53.735Z,97214.75
2023-03-02T11:41:01.423Z,97212.97
2023-03-02T11:43:05.558Z,97213.53
2023-03-02T11:45:20.020Z,97207.69
2023-03-02T11:47:24.024Z,97207.66
2023-03-02T11:49:36.532Z,97207.69
2023-03-02T11:51:53.255Z,97213.63
2023-03-02T11:54:03.686Z,97211.16
2023-03-02T11:56:09.009Z,97203.88
2023-03-02T11:58:18.009Z,97214.28
2023-03-02T12:00:31.510Z,97213.44
2023-03-02T12:02:34.092Z,97204.72
2023-03-02T12:04:39.061Z,97206.97
2023-03-02T12:06:44.062Z,97206.34
2023-03-02T12:08:47.592Z,97209.84
2023-03-02T12:10:58.369Z,97208.09
2023-03-02T12:13:13.840Z,97208.94
2023-03-02T12:15:29.565Z,97203.69
2023-03-02T12:17:35.144Z,97213.94
2023-03-02T12:19:43.652Z,97216.25
2023-03-02T12:21:58.480Z,97209.50
2023-03-02T12:24:03.890Z,97203.59
2023-03-02T12:26:10.449Z,97208.00
2023-03-02T12:28:30.169Z,97203.00
2023-03-02T12:30:32.836Z,97199.34
2023-03-02T12:32:35.466Z,97198.44
2023-03-02T12:34:40.214Z,97198.44
2023-03-02T12:36:45.008Z,97194.97
2023-03-02T12:38:58.988Z,97197.19
2023-03-02T12:41:17.530Z,97189.91
2023-03-02T12:43:33.147Z,97192.53
2023-03-02T12:45:50.551Z,97196.34
2023-03-02T12:48:02.755Z,97200.69
2023-03-02T12:50:17.081Z,97196.34
2023-03-02T12:52:24.231Z,97188.53
2023-03-02T12:54:28.603Z,97191.94
2023-03-02T12:56:31.233Z,97190.97
2023-03-02T12:58:35.494Z,97190.09
2023-03-02T13:00:38.101Z,97190.22
2023-03-02T13:02:48.162Z,97193.75
2023-03-02T13:04:55.323Z,97189.31
2023-03-02T13:06:57.993Z,97188.38
2023-03-02T13:09:00.977Z,97190.94
2023-03-02T13:11:04.653Z,97190.25
2023-03-02T13:13:17.389Z,97187.19
2023-03-02T13:15:21.521Z,97188.78
2023-03-02T13:17:26.900Z,97191.06
2023-03-02T13:19:30.648Z,97184.09
2023-03-02T13:21:35.665Z,97191.19
2023-03-02T13:23:46.114Z,97190.50
2023-03-02T13:25:50.651Z,97190.41
2023-03-02T13:27:55.840Z,97188.19
2023-03-02T13:30:10.183Z,97191.56
2023-03-02T13:32:22.702Z,97183.16
2023-03-02T13:34:27.755Z,97187.63
2023-03-02T13:36:35.386Z,97192.25
2023-03-02T13:38:39.288Z,97183.59
2023-03-02T13:40:44.743Z,97183.09
2023-03-02T13:42:48.335Z,97188.91
2023-03-02T13:44:50.934Z,97183.06
2023-03-02T13:46:53.485Z,97180.84
2023-03-02T13:49:13.966Z,97175.13
2023-03-02T13:51:18.403Z,97184.09
2023-03-02T13:53:21.523Z,97181.38
2023-03-02T13:55:25.140Z,97182.31
2023-03-02T13:57:32.216Z,97189.09
2023-03-02T13:59:36.434Z,97191.25
2023-03-02T14:01:41.335Z,97192.97
2023-03-02T14:03:43.949Z,97190.75
2023-03-02T14:05:47.876Z,97191.19
2023-03-02T14:07:50.804Z,97184.88
2023-03-02T14:09:53.394Z,97188.09
2023-03-02T14:11:57.001Z,97188.97
2023-03-02T14:13:59.637Z,97193.78
2023-03-02T14:16:02.272Z,97185.66
2023-03-02T14:18:10.516Z,97183.63
2023-03-02T14:20:15.745Z,97176.84
2023-03-02T14:22:20.416Z,97176.16
2023-03-02T14:24:22.983Z,97176.97
2023-03-02T14:26:33.415Z,97182.06
2023-03-02T14:28:36.325Z,97172.69
2023-03-02T14:30:38.971Z,97178.13
2023-03-02T14:32:41.621Z,97168.84
2023-03-02T14:34:44.442Z,97178.19
2023-03-02T14:36:50.094Z,97173.81
2023-03-02T14:38:54.368Z,97171.03
2023-03-02T14:40:57.665Z,97171.38
2023-03-02T14:43:00.298Z,97167.88
2023-03-02T14:45:02.875Z,97174.56
2023-03-02T14:47:05.533Z,97164.06
2023-03-02T14:49:08.112Z,97165.28
2023-03-02T14:51:20.735Z,97175.56
2023-03-02T14:53:29.069Z,97161.75
2023-03-02T14:55:33.938Z,97161.00
2023-03-02T14:57:38.494Z,97166.75
2023-03-02T14:59:41.162Z,97162.56
2023-03-02T15:01:44.581Z,97161.06
2023-03-02T15:03:47.567Z,97163.09
2023-03-02T15:06:00.792Z,97161.63
2023-03-02T15:08:04.276Z,97157.06
2023-03-02T15:10:08.219Z,97158.34
2023-03-02T15:12:12.475Z,97158.63
2023-03-02T15:14:15.073Z,97167.56
2023-03-02T15:16:17.787Z,97162.09
2023-03-02T15:18:20.402Z,97163.69
2023-03-02T15:20:23.046Z,97161.75
2023-03-02T15:22:25.614Z,97160.16
2023-03-02T15:24:28.216Z,97160.16
2023-03-02T15:26:30.793Z,97162.16
2023-03-02T15:28:34.744Z,97164.19
2023-03-02T15:30:37.305Z,97165.94
2023-03-02T15:32:39.990Z,97164.81
2023-03-02T15:34:42.916Z,97161.47
2023-03-02T15:36:45.501Z,97160.19
2023-03-02T15:38:50.511Z,97159.72
2023-03-02T15:40:53.399Z,97158.00
2023-03-02T15:42:56.084Z,97163.91
2023-03-02T15:45:00.154Z,97162.94
2023-03-02T15:47:03.370Z,97170.44
2023-03-02T15:49:06.036Z,97166.66
2023-03-02T15:51:09.726Z,97168.00
2023-03-02T15:53:12.280Z,97167.19
2023-03-02T15:55:15.545Z,97171.78
2023-03-02T15:57:18.627Z,97163.38
2023-03-02T15:59:21.849Z,97167.63
2023-03-02T16:01:25.791Z,97168.41
2023-03-02T16:03:28.498Z,97159.47
2023-03-02T16:05:33.226Z,97160.41
2023-03-02T16:07:37.187Z,97170.28
2023-03-02T16:09:39.830Z,97169.47
2023-03-02T16:11:42.438Z,97173.09
2023-03-02T16:13:45.002Z,97179.66
2023-03-02T16:15:47.589Z,97179.84
2023-03-02T16:17:51.453Z,97184.78
2023-03-02T16:19:54.005Z,97183.50
2023-03-02T16:21:56.583Z,97183.63
2023-03-02T16:24:03.790Z,97186.53
2023-03-02T16:26:10.295Z,97185.78
2023-03-02T16:28:13.129Z,97196.66
2023-03-02T16:30:16.481Z,97197.53
2023-03-02T16:32:21.964Z,97194.13
2023-03-02T16:34:25.931Z,97203.75
2023-03-02T16:36:28.532Z,97201.41
2023-03-02T16:38:31.144Z,97208.03
2023-03-02T16:40:34.296Z,97202.31
2023-03-02T16:42:36.942Z,97206.16
2023-03-02T16:44:39.792Z,97207.00
2023-03-02T16:46:43.369Z,97215.53
2023-03-02T16:48:47.151Z,97213.50
2023-03-02T16:50:57.715Z,97217.56
2023-03-02T16:53:00.687Z,97222.69
2023-03-02T16:55:03.707Z,97220.25
2023-03-02T16:57:06.317Z,97225.66
2023-03-02T16:59:08.864Z,97232.34
2023-03-02T17:01:13.449Z,97232.59
2023-03-02T17:03:16.295Z,97235.25
2023-03-02T17:05:21.404Z,97230.28
2023-03-02T17:07:25.369Z,97238.88
2023-03-02T17:09:28.264Z,97237.47
2023-03-02T17:11:31.819Z,97243.44
2023-03-02T17:13:34.521Z,97251.38
2023-03-02T17:15:37.127Z,97245.91
2023-03-02T17:17:39.852Z,97246.31
2023-03-02T17:19:42.402Z,97253.53
2023-03-02T17:21:44.965Z,97260.50
2023-03-02T17:23:49.302Z,97263.25
2023-03-02T17:25:51.947Z,97252.63
2023-03-02T17:27:54.554Z,97259.38
2023-03-02T17:29:57.106Z,97253.53
2023-03-02T17:31:59.786Z,97257.31
2023-03-02T17:34:04.649Z,97260.91
2023-03-02T17:36:09.681Z,97264.38
2023-03-02T17:38:12.253Z,97267.19
2023-03-02T17:40:17.478Z,97264.53
2023-03-02T17:42:20.466Z,97269.06
2023-03-02T17:44:23.128Z,97267.38
2023-03-02T17:46:27.603Z,97272.75
2023-03-02T17:48:30.276Z,97277.09
2023-03-02T17:50:32.896Z,97283.94
2023-03-02T17:52:35.451Z,97281.47
2023-03-02T17:54:38.007Z,97292.81
2023-03-02T17:56:42.461Z,97287.69
2023-03-02T17:58:45.576Z,97287.69
2023-03-02T18:00:48.181Z,97285.16
2023-03-02T18:02:51.562Z,97284.31
2023-03-02T18:04:54.172Z,97288.63
2023-03-02T18:06:56.804Z,97296.38
2023-03-02T18:08:59.370Z,97295.59
2023-03-02T18:11:01.966Z,97293.97
2023-03-02T18:13:05.933Z,97296.75
2023-03-02T18:15:09.402Z,97308.47
2023-03-02T18:17:12.452Z,97311.06
2023-03-02T18:19:15.027Z,97305.31
2023-03-02T18:21:17.917Z,97310.63
2023-03-02T18:23:21.425Z,97311.47
2023-03-02T18:25:24.294Z,97314.97
2023-03-02T18:27:27.029Z,97308.22
2023-03-02T18:29:30.968Z,97307.41
2023-03-02T18:31:34.441Z,97305.63
2023-03-02T18:33:37.067Z,97311.72
2023-03-02T18:35:39.983Z,97309.22
2023-03-02T18:37:43.059Z,97305.88
2023-03-02T18:39:45.786Z,97320.56
2023-03-02T18:41:48.477Z,97316.28
2023-03-02T18:43:51.893Z,97317.94
2023-03-02T18:45:56.872Z,97319.72
2023-03-02T18:48:00.982Z,97316.25
2023-03-02T18:50:05.362Z,97311.94
2023-03-02T18:52:09.775Z,97322.44
2023-03-02T18:54:12.628Z,97321.63
2023-03-02T18:56:15.659Z,97316.53
2023-03-02T18:58:20.733Z,97321.78
2023-03-02T19:00:28.225Z,97323.50
2023-03-02T19:02:32.255Z,97329.63
2023-03-02T19:04:35.256Z,97323.59
2023-03-02T19:06:37.856Z,97326.09
2023-03-02T19:08:40.916Z,97327.06
2023-03-02T19:10:43.496Z,97328.72
2023-03-02T19:12:46.321Z,97327.03
2023-03-02T19:14:48.931Z,97328.75
2023-03-02T19:16:51.818Z,97333.22
2023-03-02T19:18:55.872Z,97332.38
2023-03-02T19:20:58.612Z,97332.50
2023-03-02T19:23:01.696Z,97330.78
2023-03-02T19:25:04.694Z,97336.81
2023-03-02T19:27:07.337Z,97341.25
2023-03-02T19:29:09.926Z,97343.78
2023-03-02T19:31:13.789Z,97342.13
2023-03-02T19:33:16.585Z,97337.94
2023-03-02T19:35:21.873Z,97342.28
2023-03-02T19:37:24.478Z,97341.50
2023-03-02T19:39:27.228Z,97337.22
2023-03-02T19:41:29.894Z,97342.41
2023-03-02T19:43:32.956Z,97345.88
2023-03-02T19:45:36.232Z,97348.50
2023-03-02T19:47:39.002Z,97345.06
2023-03-02T19:49:41.602Z,97350.28
2023-03-02T19:51:45.509Z,97352.84
2023-03-02T19:53:48.114Z,97351.97
2023-03-02T19:55:51.440Z,97349.44
2023-03-02T19:58:01.014Z,97353.75
2023-03-02T20:00:03.930Z,97352.06
2023-03-02T20:02:06.546Z,97349.53
2023-03-02T20:04:09.305Z,97351.22
2023-03-02T20:06:11.901Z,97356.47
2023-03-02T20:08:16.839Z,97348.78
2023-03-02T20:10:31.117Z,97350.47
2023-03-02T20:12:34.019Z,97349.38
2023-03-02T20:14:38.520Z,97349.56
2023-03-02T20:16:41.320Z,97351.31
2023-03-02T20:18:45.538Z,97356.56
2023-03-02T20:20:48.572Z,97352.25
2023-03-02T20:22:51.270Z,97354.91
2023-03-02T20:24:55.194Z,97354.91
2023-03-02T20:26:57.846Z,97357.53
2023-03-02T20:29:03.633Z,97353.22
2023-03-02T20:31:11.920Z,97356.66
2023-03-02T20:33:16.069Z,97353.22
2023-03-02T20:35:18.870Z,97355.78
2023-03-02T20:37:22.559Z,97358.41
2023-03-02T20:39:28.382Z,97360.97
2023-03-02T20:41:32.727Z,97354.09
2023-03-02T20:43:35.394Z,97354.13
2023-03-02T20:45:38.116Z,97356.75
2023-03-02T20:47:40.898Z,97360.13
2023-03-02T20:49:43.578Z,97355.84
2023-03-02T20:51:52.718Z,97359.25
2023-03-02T20:53:55.580Z,97360.13
2023-03-02T20:55:58.262Z,97365.31
2023-03-02T20:58:05.326Z,97362.72
2023-03-02T21:00:11.566Z,97369.59
2023-03-02T21:02:14.918Z,97371.28
2023-03-02T21:04:17.877Z,97366.13
2023-03-02T21:06:20.591Z,97373.88
2023-03-02T21:08:23.222Z,97369.53
2023-03-02T21:10:29.398Z,97371.09
2023-03-02T21:12:33.139Z,97371.97
2023-03-02T21:14:37.196Z,97375.25
2023-03-02T21:16:40.045Z,97376.13
2023-03-02T21:18:42.655Z,97369.34
2023-03-02T21:20:45.355Z,97374.63
2023-03-02T21:22:48.096Z,97380.72
2023-03-02T21:24:52.759Z,97376.41
2023-03-02T21:26:55.804Z,97379.03
2023-03-02T21:28:58.412Z,97376.44
2023-03-02T21:31:02.387Z,97375.59
2023-03-02T21:33:05.150Z,97378.13
2023-03-02T21:35:08.080Z,97379.88
2023-03-02T21:37:10.691Z,97385.00
2023-03-02T21:39:14.009Z,97376.34
2023-03-02T21:41:17.267Z,97374.41
2023-03-02T21:43:20.144Z,97365.88
2023-03-02T21:45:23.034Z,97368.56
2023-03-02T21:47:26.931Z,97365.94
2023-03-02T21:49:29.540Z,97364.28
2023-03-02T21:51:32.592Z,97363.38
2023-03-02T21:53:35.332Z,97359.09
2023-03-02T21:55:38.171Z,97358.31
2023-03-02T21:57:41.173Z,97354.88
2023-03-02T21:59:44.004Z,97353.22
2023-03-02T22:01:46.610Z,97357.50
2023-03-02T22:03:50.967Z,97354.03
2023-03-02T22:05:53.657Z,97362.50
2023-03-02T22:07:56.268Z,97357.31
2023-03-02T22:09:58.997Z,97360.69
2023-03-02T22:12:01.558Z,97356.47
2023-03-02T22:14:12.173Z,97349.63
2023-03-02T22:16:16.719Z,97348.84
2023-03-02T22:18:22.311Z,97345.47
2023-03-02T22:20:26.420Z,97342.88
2023-03-02T22:22:30.848Z,97342.94
2023-03-02T22:24:34.813Z,97341.25
2023-03-02T22:26:40.110Z,97347.25
2023-03-02T22:28:42.768Z,97351.28
2023-03-02T22:30:45.633Z,97347.19
2023-03-02T22:32:48.821Z,97345.50
2023-03-02T22:34:53.369Z,97343.81
2023-03-02T22:37:07.387Z,97345.56
2023-03-02T22:39:16.439Z,97342.19
2023-03-02T22:41:20.704Z,97345.63
2023-03-02T22:43:26.357Z,97347.34
2023-03-02T22:45:29.984Z,97339.63
2023-03-02T22:47:33.176Z,97343.91
2023-03-02T22:49:35.737Z,97346.53
2023-03-02T22:51:38.318Z,97342.25
2023-03-02T22:53:47.269Z,97344.81
2023-03-02T22:55:49.907Z,97347.38
2023-03-02T22:57:52.484Z,97349.06
2023-03-02T23:00:21.212Z,97352.47
2023-03-02T23:02:26.138Z,97349.03
2023-03-02T23:04:32.511Z,97346.41
2023-03-02T23:06:42.352Z,97350.66
2023-03-02T23:08:46.324Z,97348.06
2023-03-02T23:10:49.600Z,97345.47
2023-03-02T23:12:52.975Z,97352.38
2023-03-02T23:14:57.210Z,97349.78
2023-03-02T23:17:01.819Z,97352.41
2023-03-02T23:19:05.543Z,97357.56
2023-03-02T23:21:16.187Z,97357.53
2023-03-02T23:23:18.857Z,97360.94
2023-03-02T23:25:22.747Z,97358.31
2023-03-02T23:27:25.848Z,97354.94
2023-03-02T23:29:28.430Z,97356.63
2023-03-02T23:31:31.367Z,97360.06
2023-03-02T23:33:34.861Z,97352.41
2023-03-02T23:35:37.483Z,97361.00
2023-03-02T23:37:40.674Z,97356.69
2023-03-02T23:39:45.919Z,97354.09
2023-03-02T23:41:50.049Z,97359.22
2023-03-02T23:43:52.695Z,97355.78
2023-03-02T23:45:56.096Z,97352.38
2023-03-02T23:47:59.077Z,97355.78
2023-03-02T23:50:01.659Z,97354.06
2023-03-02T23:52:05.591Z,97351.50
2023-03-02T23:54:08.170Z,97359.22
2023-03-02T23:56:11.328Z,97360.94
2023-03-02T23:58:15.373Z,97360.94
